createdAt,value
2022-08-01T00:04:01.514Z,100085.69
2022-08-01T00:09:02.942Z,100090.53
2022-08-01T00:14:04.618Z,100085.28
2022-08-01T00:19:05.963Z,100088.84
2022-08-01T00:24:07.526Z,100086.38
2022-08-01T00:30:10.280Z,100094.97
2022-08-01T00:34:37.282Z,100089.97
2022-08-01T00:39:38.665Z,100080.63
2022-08-01T00:44:41.065Z,100080.41
2022-08-01T00:49:42.455Z,100067.88
2022-08-01T00:54:44.563Z,100076.22
2022-08-01T00:59:45.948Z,100086.28
2022-08-01T01:04:49.364Z,100086.28
2022-08-01T01:10:01.544Z,100092.13
2022-08-01T01:15:11.505Z,100090.88
2022-08-01T01:20:14.676Z,100089.38
2022-08-01T01:25:25.233Z,100095.47
2022-08-01T01:30:30.430Z,100094.59
2022-08-01T01:35:36.673Z,100102.97
2022-08-01T01:40:39.107Z,100102.38
2022-08-01T01:45:41.716Z,100107.16
2022-08-01T01:50:44.261Z,100103.41
2022-08-01T01:55:49.099Z,100106.00
2022-08-01T02:00:54.356Z,100106.59
2022-08-01T02:05:57.982Z,100109.16
2022-08-01T02:11:19.179Z,100115.88
2022-08-01T02:16:23.851Z,100117.31
2022-08-01T02:21:31.875Z,100112.72
2022-08-01T02:26:34.722Z,100116.44
2022-08-01T02:31:40.639Z,100116.06
2022-08-01T02:36:45.773Z,100116.66
2022-08-01T02:41:50.889Z,100119.16
2022-08-01T02:47:05.704Z,100119.38
2022-08-01T02:52:10.868Z,100110.84
2022-08-01T02:57:15.433Z,100113.94
2022-08-01T03:02:21.693Z,100118.97
2022-08-01T03:07:24.893Z,100118.13
2022-08-01T03:12:38.015Z,100123.78
2022-08-01T03:17:42.548Z,100118.16
2022-08-01T03:22:45.853Z,100122.75
2022-08-01T03:27:54.943Z,100125.06
2022-08-01T03:32:57.446Z,100116.06
2022-08-01T03:38:17.198Z,100124.44
2022-08-01T03:43:36.404Z,100128.59
2022-08-01T03:48:43.762Z,100130.25
2022-08-01T03:53:47.708Z,100127.34
2022-08-01T03:58:50.612Z,100132.75
2022-08-01T04:03:52.438Z,100125.03
2022-08-01T04:08:58.129Z,100135.06
2022-08-01T04:13:59.536Z,100140.50
2022-08-01T04:19:01.167Z,100137.38
2022-08-01T04:24:11.457Z,100144.06
2022-08-01T04:29:16.790Z,100140.25
2022-08-01T04:34:22.425Z,100141.53
2022-08-01T04:39:29.111Z,100141.75
2022-08-01T04:44:33.208Z,100147.19
2022-08-01T04:49:48.563Z,100145.72
2022-08-01T04:54:50.739Z,100154.44
2022-08-01T04:59:57.630Z,100157.38
2022-08-01T05:05:00.073Z,100169.22
2022-08-01T05:10:02.276Z,100166.13
2022-08-01T05:15:10.606Z,100169.03
2022-08-01T05:20:16.200Z,100179.09
2022-08-01T05:25:19.206Z,100180.28
2022-08-01T05:30:22.388Z,100186.16
2022-08-01T05:35:23.847Z,100188.88
2022-08-01T05:40:45.381Z,100184.69
2022-08-01T05:45:46.998Z,100194.34
2022-08-01T05:50:48.736Z,100191.84
2022-08-01T05:55:50.085Z,100185.78
2022-08-01T06:00:52.048Z,100191.00
2022-08-01T06:05:54.057Z,100198.88
2022-08-01T06:10:55.501Z,100194.72
2022-08-01T06:15:56.956Z,100200.38
2022-08-01T06:20:58.372Z,100208.75
2022-08-01T06:25:59.834Z,100216.50
2022-08-01T06:31:01.273Z,100222.19
2022-08-01T06:36:02.749Z,100217.16
2022-08-01T06:41:04.373Z,100221.13
2022-08-01T06:46:05.766Z,100225.28
2022-08-01T06:51:09.812Z,100224.66
2022-08-01T06:56:11.277Z,100231.16
2022-08-01T07:01:12.768Z,100224.69
2022-08-01T07:06:15.901Z,100231.78
2022-08-01T07:11:17.311Z,100230.09
2022-08-01T07:16:18.881Z,100212.53
2022-08-01T07:21:40.589Z,100214.75
2022-08-01T07:26:53.452Z,100218.28
2022-08-01T07:31:58.150Z,100206.44
2022-08-01T07:36:59.547Z,100222.09
2022-08-01T07:42:07.307Z,100210.50
2022-08-01T07:47:09.777Z,100211.72
2022-08-01T07:52:11.168Z,100214.00
2022-08-01T07:57:12.568Z,100210.28
2022-08-01T08:02:14.541Z,100213.00
2022-08-01T08:07:16.357Z,100210.97
2022-08-01T08:12:17.759Z,100209.84
2022-08-01T08:17:19.904Z,100216.88
2022-08-01T08:22:21.293Z,100207.50
2022-08-01T08:27:22.682Z,100223.22
2022-08-01T08:32:24.040Z,100225.78
2022-08-01T08:37:25.398Z,100220.28
2022-08-01T08:42:33.209Z,100226.59
2022-08-01T08:47:35.953Z,100223.94
2022-08-01T08:52:39.995Z,100226.13
2022-08-01T08:57:45.226Z,100235.94
2022-08-01T09:02:50.156Z,100232.56
2022-08-01T09:07:51.562Z,100223.34
2022-08-01T09:13:13.939Z,100230.84
2022-08-01T09:18:28.779Z,100222.00
2022-08-01T09:23:34.099Z,100229.44
2022-08-01T09:28:36.297Z,100228.88
2022-08-01T09:33:59.006Z,100228.03
2022-08-01T09:39:13.618Z,100226.72
2022-08-01T09:44:18.580Z,100219.72
2022-08-01T09:49:50.590Z,100217.06
2022-08-01T09:54:59.210Z,100215.03
2022-08-01T10:00:02.334Z,100216.97
2022-08-01T10:05:08.093Z,100213.66
2022-08-01T10:10:15.458Z,100209.50
2022-08-01T10:15:18.591Z,100206.31
2022-08-01T10:20:30.115Z,100199.88
2022-08-01T10:25:41.793Z,100208.00
2022-08-01T10:30:45.493Z,100207.31
2022-08-01T10:35:48.265Z,100205.81
2022-08-01T10:40:51.118Z,100190.47
2022-08-01T10:45:53.129Z,100184.03
2022-08-01T10:50:58.649Z,100180.34
2022-08-01T10:56:03.332Z,100175.53
2022-08-01T11:01:25.924Z,100171.97
2022-08-01T11:06:34.047Z,100170.28
2022-08-01T11:12:13.641Z,100173.22
2022-08-01T11:17:42.127Z,100174.75
2022-08-01T11:22:59.516Z,100165.28
2022-08-01T11:28:29.120Z,100169.03
2022-08-01T11:33:40.495Z,100169.22
2022-08-01T11:38:46.340Z,100149.81
2022-08-01T11:44:09.096Z,100140.78
2022-08-01T11:49:48.722Z,100144.00
2022-08-01T11:55:05.507Z,100126.97
2022-08-01T12:00:17.742Z,100124.69
2022-08-01T12:05:24.515Z,100126.81
2022-08-01T12:10:29.941Z,100120.66
2022-08-01T12:15:38.573Z,100109.09
2022-08-01T12:20:56.038Z,100121.03
2022-08-01T12:25:58.680Z,100120.31
2022-08-01T12:30:59.992Z,100117.41
2022-08-01T12:36:01.610Z,100102.31
2022-08-01T12:41:03.064Z,100109.94
2022-08-01T12:46:04.644Z,100104.63
2022-08-01T12:51:06.156Z,100108.69
2022-08-01T12:56:07.563Z,100107.50
2022-08-01T13:01:11.210Z,100105.06
2022-08-01T13:06:15.539Z,100095.53
2022-08-01T13:11:18.967Z,100092.81
2022-08-01T13:16:30.243Z,100102.38
2022-08-01T13:21:52.665Z,100103.38
2022-08-01T13:27:00.704Z,100105.13
2022-08-01T13:32:29.061Z,100099.06
2022-08-01T13:37:32.382Z,100102.78
2022-08-01T13:42:34.785Z,100093.44
2022-08-01T13:47:36.156Z,100100.13
2022-08-01T13:52:37.557Z,100103.56
2022-08-01T13:57:39.238Z,100106.28
2022-08-01T14:02:41.188Z,100112.47
2022-08-01T14:07:43.359Z,100107.31
2022-08-01T14:12:50.491Z,100105.47
2022-08-01T14:17:52.469Z,100095.75
2022-08-01T14:22:53.848Z,100097.09
2022-08-01T14:27:55.681Z,100105.72
2022-08-01T14:32:57.124Z,100116.00
2022-08-01T14:37:58.548Z,100116.75
2022-08-01T14:43:02.164Z,100107.88
2022-08-01T14:48:03.853Z,100107.00
2022-08-01T14:53:05.330Z,100101.16
2022-08-01T14:58:06.672Z,100106.81
2022-08-01T15:03:08.075Z,100111.06
2022-08-01T15:08:09.472Z,100102.50
2022-08-01T15:13:10.838Z,100102.03
2022-08-01T15:18:12.523Z,100105.66
2022-08-01T15:23:14.500Z,100103.59
2022-08-01T15:28:15.934Z,100108.16
2022-08-01T15:33:17.718Z,100104.97
2022-08-01T15:38:20.156Z,100099.69
2022-08-01T15:43:21.488Z,100103.00
2022-08-01T15:48:22.920Z,100109.91
2022-08-01T15:53:24.403Z,100114.31
2022-08-01T15:58:25.956Z,100120.47
2022-08-01T16:03:27.729Z,100115.19
2022-08-01T16:08:29.195Z,100116.63
2022-08-01T16:13:30.703Z,100114.88
2022-08-01T16:18:32.061Z,100105.22
2022-08-01T16:23:33.506Z,100113.03
2022-08-01T16:28:35.419Z,100114.72
2022-08-01T16:33:41.432Z,100106.31
2022-08-01T16:38:54.820Z,100110.09
2022-08-01T16:43:56.568Z,100106.94
2022-08-01T16:48:58.043Z,100098.38
2022-08-01T16:54:00.269Z,100103.72
2022-08-01T16:59:01.650Z,100106.09
2022-08-01T17:04:03.071Z,100100.19
2022-08-01T17:09:05.211Z,100096.38
2022-08-01T17:14:06.649Z,100104.25
2022-08-01T17:19:08.284Z,100098.69
2022-08-01T17:24:09.820Z,100111.66
2022-08-01T17:29:11.557Z,100116.50
2022-08-01T17:34:13.133Z,100118.06
2022-08-01T17:39:14.645Z,100116.50
2022-08-01T17:44:15.967Z,100118.91
2022-08-01T17:49:33.344Z,100115.81
2022-08-01T17:54:39.074Z,100130.88
2022-08-01T17:59:40.450Z,100123.59
2022-08-01T18:04:44.408Z,100129.78
2022-08-01T18:09:46.353Z,100123.34
2022-08-01T18:14:47.715Z,100131.88
2022-08-01T18:19:50.759Z,100139.34
2022-08-01T18:24:52.469Z,100139.44
2022-08-01T18:29:53.827Z,100141.66
2022-08-01T18:34:55.174Z,100153.03
2022-08-01T18:39:57.039Z,100143.50
2022-08-01T18:44:58.417Z,100151.63
2022-08-01T18:50:00.095Z,100162.03
2022-08-01T18:55:01.487Z,100163.19
2022-08-01T19:00:04.516Z,100175.38
2022-08-01T19:05:06.305Z,100173.25
2022-08-01T19:10:07.901Z,100173.50
2022-08-01T19:15:09.892Z,100173.78
2022-08-01T19:20:11.506Z,100190.81
2022-08-01T19:25:14.893Z,100198.00
2022-08-01T19:30:18.078Z,100204.75
2022-08-01T19:35:19.740Z,100214.88
2022-08-01T19:40:26.164Z,100213.91
2022-08-01T19:45:29.699Z,100226.91
2022-08-01T19:50:32.609Z,100230.59
2022-08-01T19:55:39.173Z,100237.47
2022-08-01T20:00:42.745Z,100248.00
2022-08-01T20:05:44.313Z,100241.31
2022-08-01T20:10:46.716Z,100251.00
2022-08-01T20:15:48.574Z,100258.38
2022-08-01T20:20:52.307Z,100264.34
2022-08-01T20:25:59.070Z,100266.19
2022-08-01T20:31:05.701Z,100267.81
2022-08-01T20:36:12.377Z,100259.94
2022-08-01T20:41:28.204Z,100266.25
2022-08-01T20:46:29.696Z,100286.34
2022-08-01T20:51:38.102Z,100285.78
2022-08-01T20:56:59.256Z,100286.66
2022-08-01T21:02:24.947Z,100290.84
2022-08-01T21:07:30.529Z,100304.31
2022-08-01T21:12:44.754Z,100300.13
2022-08-01T21:17:54.983Z,100304.13
2022-08-01T21:23:14.434Z,100305.59
2022-08-01T21:28:15.972Z,100297.44
2022-08-01T21:33:17.429Z,100304.13
2022-08-01T21:38:19.177Z,100305.41
2022-08-01T21:43:21.828Z,100311.25
2022-08-01T21:48:26.868Z,100320.38
2022-08-01T21:53:53.889Z,100327.50
2022-08-01T21:59:33.519Z,100332.09
2022-08-01T22:04:53.515Z,100337.53
2022-08-01T22:09:57.353Z,100329.16
2022-08-01T22:15:03.074Z,100343.75
2022-08-01T22:20:05.365Z,100343.72
2022-08-01T22:25:07.253Z,100344.13
2022-08-01T22:30:12.660Z,100339.56
2022-08-01T22:35:16.352Z,100346.84
2022-08-01T22:40:17.688Z,100345.81
2022-08-01T22:45:39.819Z,100345.38
2022-08-01T22:50:55.168Z,100341.19
2022-08-01T22:55:59.377Z,100351.56
2022-08-01T23:01:03.017Z,100351.13
2022-08-01T23:06:09.978Z,100354.84
2022-08-01T23:11:11.395Z,100353.56
2022-08-01T23:16:17.429Z,100356.47
2022-08-01T23:21:19.652Z,100343.91
2022-08-01T23:26:23.424Z,100340.13
2022-08-01T23:32:00.631Z,100341.94
2022-08-01T23:36:48.285Z,100351.56
2022-08-01T23:41:57.258Z,100367.13
2022-08-01T23:47:00.959Z,100355.88
2022-08-01T23:52:03.053Z,100360.72
2022-08-01T23:57:04.632Z,100368.31
